sensor_id;sensor_type;location;lat;lon;timestamp;P1;durP1;ratioP1;P2;durP2;ratioP2
70122;SDS011;57489;37.404;24.920;2023-03-03T00:02:46;9.83;;;5.43;;
70122;SDS011;57489;37.404;24.920;2023-03-03T00:07:46;10.47;;;5.97;;
70122;SDS011;57489;37.404;24.920;2023-03-03T00:12:47;9.90;;;5.63;;
70122;SDS011;57489;37.404;24.920;2023-03-03T00:17:49;12.65;;;5.75;;
70122;SDS011;57489;37.404;24.920;2023-03-03T00:22:51;11.83;;;5.47;;
70122;SDS011;57489;37.404;24.920;2023-03-03T00:27:51;9.83;;;5.53;;
70122;SDS011;57489;37.404;24.920;2023-03-03T00:32:52;15.50;;;5.10;;
70122;SDS011;57489;37.404;24.920;2023-03-03T00:37:55;10.90;;;5.57;;
70122;SDS011;57489;37.404;24.920;2023-03-03T00:42:58;10.82;;;5.40;;
70122;SDS011;57489;37.404;24.920;2023-03-03T00:47:59;11.50;;;5.38;;
70122;SDS011;57489;37.404;24.920;2023-03-03T00:53:16;10.07;;;5.10;;
70122;SDS011;57489;37.404;24.920;2023-03-03T00:58:18;12.27;;;4.90;;
70122;SDS011;57489;37.404;24.920;2023-03-03T01:03:21;8.33;;;4.80;;
70122;SDS011;57489;37.404;24.920;2023-03-03T01:08:22;11.33;;;4.77;;
70122;SDS011;57489;37.404;24.920;2023-03-03T01:13:25;10.27;;;5.35;;
70122;SDS011;57489;37.404;24.920;2023-03-03T01:18:28;10.00;;;5.20;;
70122;SDS011;57489;37.404;24.920;2023-03-03T01:23:29;8.32;;;4.45;;
70122;SDS011;57489;37.404;24.920;2023-03-03T01:28:30;10.00;;;5.10;;
70122;SDS011;57489;37.404;24.920;2023-03-03T01:33:32;10.38;;;4.35;;
70122;SDS011;57489;37.404;24.920;2023-03-03T01:38:34;12.00;;;5.00;;
70122;SDS011;57489;37.404;24.920;2023-03-03T01:43:41;12.13;;;5.15;;
70122;SDS011;57489;37.404;24.920;2023-03-03T01:48:43;10.18;;;4.43;;
70122;SDS011;57489;37.404;24.920;2023-03-03T01:53:49;9.20;;;5.33;;
70122;SDS011;57489;37.404;24.920;2023-03-03T01:59:03;7.68;;;4.68;;
70122;SDS011;57489;37.404;24.920;2023-03-03T02:04:06;7.82;;;4.40;;
70122;SDS011;57489;37.404;24.920;2023-03-03T02:09:12;9.47;;;4.20;;
70122;SDS011;57489;37.404;24.920;2023-03-03T02:14:26;9.40;;;4.57;;
70122;SDS011;57489;37.404;24.920;2023-03-03T02:24:44;10.30;;;4.47;;
70122;SDS011;57489;37.404;24.920;2023-03-03T02:30:19;8.80;;;4.00;;
70122;SDS011;57489;37.404;24.920;2023-03-03T02:40:26;7.87;;;4.00;;
70122;SDS011;57489;37.404;24.920;2023-03-03T02:45:33;8.82;;;4.47;;
70122;SDS011;57489;37.404;24.920;2023-03-03T02:50:33;8.10;;;4.23;;
70122;SDS011;57489;37.404;24.920;2023-03-03T02:55:34;8.83;;;4.60;;
70122;SDS011;57489;37.404;24.920;2023-03-03T03:00:34;8.10;;;4.40;;
70122;SDS011;57489;37.404;24.920;2023-03-03T03:05:35;8.97;;;4.53;;
70122;SDS011;57489;37.404;24.920;2023-03-03T03:10:35;7.83;;;4.37;;
70122;SDS011;57489;37.404;24.920;2023-03-03T03:15:36;9.82;;;4.28;;
70122;SDS011;57489;37.404;24.920;2023-03-03T03:20:37;9.17;;;4.43;;
70122;SDS011;57489;37.404;24.920;2023-03-03T03:25:37;6.70;;;3.55;;
70122;SDS011;57489;37.404;24.920;2023-03-03T03:30:38;9.43;;;4.17;;
70122;SDS011;57489;37.404;24.920;2023-03-03T03:35:38;8.00;;;4.10;;
70122;SDS011;57489;37.404;24.920;2023-03-03T03:40:39;8.20;;;3.80;;
70122;SDS011;57489;37.404;24.920;2023-03-03T03:45:41;9.48;;;4.20;;
70122;SDS011;57489;37.404;24.920;2023-03-03T03:50:42;7.77;;;4.07;;
70122;SDS011;57489;37.404;24.920;2023-03-03T03:55:43;7.83;;;3.80;;
70122;SDS011;57489;37.404;24.920;2023-03-03T04:00:46;7.60;;;3.80;;
70122;SDS011;57489;37.404;24.920;2023-03-03T04:05:47;6.50;;;3.45;;
70122;SDS011;57489;37.404;24.920;2023-03-03T04:10:47;7.70;;;3.57;;
70122;SDS011;57489;37.404;24.920;2023-03-03T04:15:48;8.57;;;4.23;;
70122;SDS011;57489;37.404;24.920;2023-03-03T04:20:48;6.20;;;3.13;;
70122;SDS011;57489;37.404;24.920;2023-03-03T04:25:49;8.52;;;3.95;;
70122;SDS011;57489;37.404;24.920;2023-03-03T04:30:49;7.03;;;3.67;;
70122;SDS011;57489;37.404;24.920;2023-03-03T04:35:50;7.40;;;3.60;;
70122;SDS011;57489;37.404;24.920;2023-03-03T04:40:50;7.80;;;4.00;;
70122;SDS011;57489;37.404;24.920;2023-03-03T04:45:51;7.47;;;3.63;;
70122;SDS011;57489;37.404;24.920;2023-03-03T04:50:52;7.22;;;3.55;;
70122;SDS011;57489;37.404;24.920;2023-03-03T04:55:52;6.70;;;3.33;;
70122;SDS011;57489;37.404;24.920;2023-03-03T05:00:53;7.23;;;3.53;;
70122;SDS011;57489;37.404;24.920;2023-03-03T05:05:55;6.70;;;3.20;;
70122;SDS011;57489;37.404;24.920;2023-03-03T05:10:56;6.10;;;3.17;;
70122;SDS011;57489;37.404;24.920;2023-03-03T05:15:56;10.27;;;3.87;;
70122;SDS011;57489;37.404;24.920;2023-03-03T05:20:56;7.77;;;3.50;;
70122;SDS011;57489;37.404;24.920;2023-03-03T05:25:57;6.40;;;3.72;;
70122;SDS011;57489;37.404;24.920;2023-03-03T05:30:57;7.27;;;3.67;;
70122;SDS011;57489;37.404;24.920;2023-03-03T05:35:58;6.63;;;3.17;;
70122;SDS011;57489;37.404;24.920;2023-03-03T05:40:58;12.00;;;4.73;;
70122;SDS011;57489;37.404;24.920;2023-03-03T05:45:59;9.13;;;3.83;;
70122;SDS011;57489;37.404;24.920;2023-03-03T05:50:59;8.33;;;3.83;;
70122;SDS011;57489;37.404;24.920;2023-03-03T05:56:00;9.73;;;4.00;;
70122;SDS011;57489;37.404;24.920;2023-03-03T06:01:00;10.83;;;4.10;;
70122;SDS011;57489;37.404;24.920;2023-03-03T06:06:00;9.20;;;4.23;;
70122;SDS011;57489;37.404;24.920;2023-03-03T06:11:01;11.13;;;4.43;;
70122;SDS011;57489;37.404;24.920;2023-03-03T06:16:01;15.20;;;5.00;;
70122;SDS011;57489;37.404;24.920;2023-03-03T06:21:02;13.03;;;4.27;;
70122;SDS011;57489;37.404;24.920;2023-03-03T06:26:02;10.93;;;4.67;;
70122;SDS011;57489;37.404;24.920;2023-03-03T06:31:03;13.07;;;4.37;;
70122;SDS011;57489;37.404;24.920;2023-03-03T06:36:04;10.87;;;4.30;;
70122;SDS011;57489;37.404;24.920;2023-03-03T06:41:04;12.88;;;5.68;;
70122;SDS011;57489;37.404;24.920;2023-03-03T06:46:05;14.33;;;4.33;;
70122;SDS011;57489;37.404;24.920;2023-03-03T06:51:11;9.93;;;4.27;;
70122;SDS011;57489;37.404;24.920;2023-03-03T06:56:18;14.10;;;4.40;;
70122;SDS011;57489;37.404;24.920;2023-03-03T07:01:18;14.47;;;4.97;;
70122;SDS011;57489;37.404;24.920;2023-03-03T07:06:21;15.20;;;4.30;;
70122;SDS011;57489;37.404;24.920;2023-03-03T07:11:22;14.30;;;5.40;;
70122;SDS011;57489;37.404;24.920;2023-03-03T07:16:24;10.57;;;4.40;;
70122;SDS011;57489;37.404;24.920;2023-03-03T07:21:33;10.73;;;3.37;;
70122;SDS011;57489;37.404;24.920;2023-03-03T07:26:35;7.75;;;3.53;;
70122;SDS011;57489;37.404;24.920;2023-03-03T07:31:37;6.87;;;3.23;;
70122;SDS011;57489;37.404;24.920;2023-03-03T07:36:39;9.35;;;3.72;;
70122;SDS011;57489;37.404;24.920;2023-03-03T07:41:40;7.25;;;2.88;;
70122;SDS011;57489;37.404;24.920;2023-03-03T07:46:41;6.53;;;3.07;;
70122;SDS011;57489;37.404;24.920;2023-03-03T07:51:43;7.22;;;3.30;;
70122;SDS011;57489;37.404;24.920;2023-03-03T07:56:43;7.67;;;3.37;;
70122;SDS011;57489;37.404;24.920;2023-03-03T08:01:44;6.67;;;3.17;;
70122;SDS011;57489;37.404;24.920;2023-03-03T08:16:54;7.93;;;2.67;;
70122;SDS011;57489;37.404;24.920;2023-03-03T08:21:57;9.20;;;3.25;;
70122;SDS011;57489;37.404;24.920;2023-03-03T08:27:01;9.15;;;2.65;;
70122;SDS011;57489;37.404;24.920;2023-03-03T08:32:02;8.13;;;2.90;;
70122;SDS011;57489;37.404;24.920;2023-03-03T08:37:02;5.87;;;3.30;;
70122;SDS011;57489;37.404;24.920;2023-03-03T08:42:03;8.53;;;3.00;;
70122;SDS011;57489;37.404;24.920;2023-03-03T08:47:03;8.47;;;2.90;;
70122;SDS011;57489;37.404;24.920;2023-03-03T08:52:04;5.77;;;2.80;;
70122;SDS011;57489;37.404;24.920;2023-03-03T08:57:04;6.35;;;3.08;;
70122;SDS011;57489;37.404;24.920;2023-03-03T09:02:05;9.67;;;3.03;;
70122;SDS011;57489;37.404;24.920;2023-03-03T09:07:07;7.63;;;3.73;;
70122;SDS011;57489;37.404;24.920;2023-03-03T09:12:13;6.90;;;3.47;;
70122;SDS011;57489;37.404;24.920;2023-03-03T09:17:18;12.65;;;6.05;;
70122;SDS011;57489;37.404;24.920;2023-03-03T09:22:27;14.33;;;5.53;;
70122;SDS011;57489;37.404;24.920;2023-03-03T09:27:29;10.43;;;4.67;;
70122;SDS011;57489;37.404;24.920;2023-03-03T09:32:34;9.23;;;4.10;;
70122;SDS011;57489;37.404;24.920;2023-03-03T09:37:37;8.85;;;4.40;;
70122;SDS011;57489;37.404;24.920;2023-03-03T09:42:49;8.33;;;3.37;;
70122;SDS011;57489;37.404;24.920;2023-03-03T10:03:54;17.65;;;5.78;;
70122;SDS011;57489;37.404;24.920;2023-03-03T10:14:45;8.77;;;3.57;;
70122;SDS011;57489;37.404;24.920;2023-03-03T10:30:52;7.43;;;3.30;;
70122;SDS011;57489;37.404;24.920;2023-03-03T10:57:48;8.65;;;3.30;;
70122;SDS011;57489;37.404;24.920;2023-03-03T11:09:02;8.83;;;3.50;;
70122;SDS011;57489;37.404;24.920;2023-03-03T11:14:11;7.80;;;3.00;;
70122;SDS011;57489;37.404;24.920;2023-03-03T11:19:20;7.43;;;3.38;;
70122;SDS011;57489;37.404;24.920;2023-03-03T11:24:38;9.53;;;4.00;;
70122;SDS011;57489;37.404;24.920;2023-03-03T11:29:45;10.52;;;3.33;;
70122;SDS011;57489;37.404;24.920;2023-03-03T11:45:54;8.63;;;3.07;;
70122;SDS011;57489;37.404;24.920;2023-03-03T11:51:10;6.15;;;3.10;;
70122;SDS011;57489;37.404;24.920;2023-03-03T12:11:53;8.10;;;3.25;;
70122;SDS011;57489;37.404;24.920;2023-03-03T12:17:04;11.38;;;3.20;;
70122;SDS011;57489;37.404;24.920;2023-03-03T12:22:32;10.30;;;3.10;;
70122;SDS011;57489;37.404;24.920;2023-03-03T12:27:38;9.05;;;3.08;;
70122;SDS011;57489;37.404;24.920;2023-03-03T12:38:52;6.53;;;3.07;;
70122;SDS011;57489;37.404;24.920;2023-03-03T12:49:13;14.80;;;4.00;;
70122;SDS011;57489;37.404;24.920;2023-03-03T12:54:17;11.33;;;2.93;;
70122;SDS011;57489;37.404;24.920;2023-03-03T13:10:18;6.72;;;2.60;;
70122;SDS011;57489;37.404;24.920;2023-03-03T13:15:27;11.25;;;2.72;;
70122;SDS011;57489;37.404;24.920;2023-03-03T13:31:08;13.27;;;3.95;;
70122;SDS011;57489;37.404;24.920;2023-03-03T13:36:14;9.00;;;3.23;;
70122;SDS011;57489;37.404;24.920;2023-03-03T13:41:22;11.07;;;3.53;;
70122;SDS011;57489;37.404;24.920;2023-03-03T13:52:07;8.85;;;3.17;;
70122;SDS011;57489;37.404;24.920;2023-03-03T14:13:10;10.10;;;3.00;;
70122;SDS011;57489;37.404;24.920;2023-03-03T14:34:36;10.23;;;2.97;;
70122;SDS011;57489;37.404;24.920;2023-03-03T14:39:38;10.88;;;4.10;;
70122;SDS011;57489;37.404;24.920;2023-03-03T14:45:41;12.95;;;2.83;;
70122;SDS011;57489;37.404;24.920;2023-03-03T14:50:30;15.43;;;3.33;;
70122;SDS011;57489;37.404;24.920;2023-03-03T14:55:35;7.88;;;3.28;;
70122;SDS011;57489;37.404;24.920;2023-03-03T15:00:37;9.55;;;3.42;;
70122;SDS011;57489;37.404;24.920;2023-03-03T15:05:38;13.13;;;2.77;;
70122;SDS011;57489;37.404;24.920;2023-03-03T15:10:48;12.07;;;3.07;;
70122;SDS011;57489;37.404;24.920;2023-03-03T15:21:12;8.37;;;2.80;;
70122;SDS011;57489;37.404;24.920;2023-03-03T15:26:23;13.20;;;6.13;;
70122;SDS011;57489;37.404;24.920;2023-03-03T15:37:06;17.90;;;6.87;;
70122;SDS011;57489;37.404;24.920;2023-03-03T15:42:17;16.15;;;5.57;;
70122;SDS011;57489;37.404;24.920;2023-03-03T16:02:54;14.48;;;4.82;;
70122;SDS011;57489;37.404;24.920;2023-03-03T16:08:04;12.80;;;4.20;;
70122;SDS011;57489;37.404;24.920;2023-03-03T16:13:21;13.03;;;4.63;;
70122;SDS011;57489;37.404;24.920;2023-03-03T16:19:41;8.30;;;4.05;;
70122;SDS011;57489;37.404;24.920;2023-03-03T16:29:45;11.43;;;4.20;;
70122;SDS011;57489;37.404;24.920;2023-03-03T16:34:59;11.25;;;4.32;;
70122;SDS011;57489;37.404;24.920;2023-03-03T16:40:29;8.02;;;3.50;;
70122;SDS011;57489;37.404;24.920;2023-03-03T16:45:37;10.50;;;3.87;;
70122;SDS011;57489;37.404;24.920;2023-03-03T16:51:03;8.20;;;3.70;;
70122;SDS011;57489;37.404;24.920;2023-03-03T16:56:35;8.98;;;3.25;;
70122;SDS011;57489;37.404;24.920;2023-03-03T17:07:41;13.73;;;4.57;;
70122;SDS011;57489;37.404;24.920;2023-03-03T17:17:30;20.43;;;5.47;;
70122;SDS011;57489;37.404;24.920;2023-03-03T17:38:57;14.32;;;5.38;;
70122;SDS011;57489;37.404;24.920;2023-03-03T17:50:38;11.60;;;4.50;;
70122;SDS011;57489;37.404;24.920;2023-03-03T18:06:46;14.37;;;4.43;;
70122;SDS011;57489;37.404;24.920;2023-03-03T18:17:21;15.60;;;4.60;;
70122;SDS011;57489;37.404;24.920;2023-03-03T18:22:41;10.23;;;5.63;;
70122;SDS011;57489;37.404;24.920;2023-03-03T18:27:47;11.70;;;3.77;;
70122;SDS011;57489;37.404;24.920;2023-03-03T18:33:08;14.50;;;5.15;;
70122;SDS011;57489;37.404;24.920;2023-03-03T18:48:48;15.35;;;4.32;;
70122;SDS011;57489;37.404;24.920;2023-03-03T18:53:58;8.33;;;3.73;;
70122;SDS011;57489;37.404;24.920;2023-03-03T18:59:06;11.10;;;3.77;;
70122;SDS011;57489;37.404;24.920;2023-03-03T19:09:17;9.23;;;3.97;;
70122;SDS011;57489;37.404;24.920;2023-03-03T19:19:30;10.95;;;3.42;;
70122;SDS011;57489;37.404;24.920;2023-03-03T19:24:32;9.98;;;3.63;;
70122;SDS011;57489;37.404;24.920;2023-03-03T19:56:19;8.15;;;2.85;;
70122;SDS011;57489;37.404;24.920;2023-03-03T20:01:23;7.10;;;2.73;;
70122;SDS011;57489;37.404;24.920;2023-03-03T20:16:45;7.87;;;2.53;;
70122;SDS011;57489;37.404;24.920;2023-03-03T20:22:03;9.65;;;3.40;;
70122;SDS011;57489;37.404;24.920;2023-03-03T20:43:00;6.78;;;3.05;;
70122;SDS011;57489;37.404;24.920;2023-03-03T20:54:00;6.05;;;2.60;;
70122;SDS011;57489;37.404;24.920;2023-03-03T21:04:25;8.13;;;2.47;;
70122;SDS011;57489;37.404;24.920;2023-03-03T21:09:34;9.65;;;2.80;;
70122;SDS011;57489;37.404;24.920;2023-03-03T21:14:36;7.90;;;2.40;;
70122;SDS011;57489;37.404;24.920;2023-03-03T21:19:37;7.80;;;2.90;;
70122;SDS011;57489;37.404;24.920;2023-03-03T21:24:53;7.03;;;2.50;;
70122;SDS011;57489;37.404;24.920;2023-03-03T21:30:12;5.70;;;2.40;;
70122;SDS011;57489;37.404;24.920;2023-03-03T21:35:15;5.63;;;2.13;;
70122;SDS011;57489;37.404;24.920;2023-03-03T21:40:21;5.38;;;2.38;;
70122;SDS011;57489;37.404;24.920;2023-03-03T21:45:24;6.43;;;2.47;;
70122;SDS011;57489;37.404;24.920;2023-03-03T21:50:25;5.63;;;2.40;;
70122;SDS011;57489;37.404;24.920;2023-03-03T21:55:26;9.70;;;2.30;;
70122;SDS011;57489;37.404;24.920;2023-03-03T22:00:26;6.40;;;2.80;;
70122;SDS011;57489;37.404;24.920;2023-03-03T22:05:27;8.03;;;3.00;;
70122;SDS011;57489;37.404;24.920;2023-03-03T22:10:27;6.90;;;2.57;;
70122;SDS011;57489;37.404;24.920;2023-03-03T22:15:28;5.83;;;2.43;;
70122;SDS011;57489;37.404;24.920;2023-03-03T22:20:28;6.63;;;2.50;;
70122;SDS011;57489;37.404;24.920;2023-03-03T22:25:28;6.13;;;2.10;;
70122;SDS011;57489;37.404;24.920;2023-03-03T22:30:29;6.72;;;2.50;;
70122;SDS011;57489;37.404;24.920;2023-03-03T22:35:30;7.30;;;2.30;;
70122;SDS011;57489;37.404;24.920;2023-03-03T22:40:30;7.13;;;2.20;;
70122;SDS011;57489;37.404;24.920;2023-03-03T22:45:31;6.37;;;2.33;;
70122;SDS011;57489;37.404;24.920;2023-03-03T22:50:32;5.15;;;2.33;;
70122;SDS011;57489;37.404;24.920;2023-03-03T22:55:32;5.20;;;2.57;;
70122;SDS011;57489;37.404;24.920;2023-03-03T23:00:33;5.30;;;2.17;;
70122;SDS011;57489;37.404;24.920;2023-03-03T23:05:35;6.15;;;2.13;;
70122;SDS011;57489;37.404;24.920;2023-03-03T23:10:36;5.90;;;2.47;;
70122;SDS011;57489;37.404;24.920;2023-03-03T23:15:37;4.68;;;2.08;;
70122;SDS011;57489;37.404;24.920;2023-03-03T23:20:37;6.40;;;2.10;;
70122;SDS011;57489;37.404;24.920;2023-03-03T23:25:38;5.37;;;2.30;;
70122;SDS011;57489;37.404;24.920;2023-03-03T23:30:38;5.47;;;2.23;;
70122;SDS011;57489;37.404;24.920;2023-03-03T23:35:39;5.07;;;2.20;;
70122;SDS011;57489;37.404;24.920;2023-03-03T23:40:40;4.37;;;2.37;;
70122;SDS011;57489;37.404;24.920;2023-03-03T23:45:41;5.50;;;2.57;;
70122;SDS011;57489;37.404;24.920;2023-03-03T23:50:41;4.60;;;2.00;;
70122;SDS011;57489;37.404;24.920;2023-03-03T23:55:42;5.27;;;2.00;;
